Terminal Aerodrome Forecast
Issued by NWS Riverton, WY

Home | Current Version | Previous Version | Text Only | Print | Product List | Glossary On
Versions: 1 2 3 4 5 6 7 8 9 10 11 12 13 14 15 16 17 18
000
FTUS45 KRIW 171728
TAFRIW
TAF
KRIW 171728Z 1718/1818 VRB03KT P6SM BCFG SCT002
     FM171900 VRB03KT P6SM SKC
     FM180400 VRB03KT 4SM BR SKC
     FM180600 VRB03KT 1 1/2SM BR SCT003
     FM180800 VRB03KT 3/4SM BR VV003
     FM181600 VRB03KT 1 1/2SM BR BKN004=

USA.gov is the U.S. government's official web portal to all federal, state and local government web resources and services.